createdAt,value
2019-02-20T00:00:59.364Z,9.10
2019-02-20T00:03:49.212Z,9.57
2019-02-20T00:06:38.787Z,11.73
2019-02-20T00:09:28.169Z,26.30
2019-02-20T00:12:18.073Z,17.30
2019-02-20T00:15:22.492Z,11.97
2019-02-20T00:18:11.723Z,9.73
2019-02-20T00:21:01.151Z,8.97
2019-02-20T00:23:50.615Z,10.20
2019-02-20T00:26:40.152Z,12.93
2019-02-20T00:29:29.364Z,11.10
2019-02-20T00:32:18.530Z,12.17
2019-02-20T00:35:08.219Z,9.57
2019-02-20T00:37:57.739Z,9.97
2019-02-20T00:40:47.246Z,8.70
2019-02-20T00:43:38.672Z,10.60
2019-02-20T00:46:36.144Z,8.10
2019-02-20T00:49:31.090Z,8.53
2019-02-20T00:52:54.943Z,9.97
2019-02-20T00:55:44.809Z,8.90
2019-02-20T00:58:34.220Z,10.23
2019-02-20T01:01:24.345Z,8.73
2019-02-20T01:04:13.908Z,10.27
2019-02-20T01:07:03.565Z,8.80
2019-02-20T01:09:53.212Z,8.73
2019-02-20T01:12:42.943Z,8.07
2019-02-20T01:15:32.058Z,7.83
2019-02-20T01:18:22.009Z,8.30
2019-02-20T01:21:11.249Z,7.63
2019-02-20T01:24:00.700Z,10.60
2019-02-20T01:26:50.056Z,11.13
2019-02-20T01:29:40.104Z,9.90
2019-02-20T01:32:29.336Z,8.10
2019-02-20T01:35:18.817Z,11.53
2019-02-20T01:38:07.966Z,11.93
2019-02-20T01:40:57.440Z,10.20
2019-02-20T01:43:46.967Z,9.13
2019-02-20T01:46:36.222Z,9.53
2019-02-20T01:49:25.758Z,9.33
2019-02-20T01:52:15.409Z,10.00
2019-02-20T01:55:05.010Z,11.10
2019-02-20T01:57:54.909Z,11.37
2019-02-20T02:00:44.360Z,10.93
2019-02-20T02:03:33.990Z,13.27
2019-02-20T02:06:24.527Z,13.90
2019-02-20T02:09:14.137Z,11.07
2019-02-20T02:12:03.341Z,10.87
2019-02-20T02:14:53.200Z,13.03
2019-02-20T02:17:42.622Z,13.43
2019-02-20T02:20:32.338Z,12.07
2019-02-20T02:23:22.042Z,10.50
2019-02-20T02:26:11.647Z,13.80
2019-02-20T02:29:01.086Z,11.30
2019-02-20T02:31:50.226Z,12.30
2019-02-20T02:34:39.869Z,14.10
2019-02-20T02:37:28.983Z,14.23
2019-02-20T02:40:19.012Z,13.07
2019-02-20T02:43:08.571Z,13.33
2019-02-20T02:45:58.783Z,12.80
2019-02-20T02:48:48.093Z,14.77
2019-02-20T02:51:37.509Z,13.00
2019-02-20T02:54:26.682Z,14.33
2019-02-20T02:57:15.718Z,14.03
2019-02-20T03:00:06.377Z,14.50
2019-02-20T03:02:56.135Z,14.03
2019-02-20T03:05:45.661Z,14.20
2019-02-20T03:08:35.471Z,17.30
2019-02-20T03:11:24.969Z,14.40
2019-02-20T03:14:14.786Z,14.53
2019-02-20T03:17:04.255Z,18.20
2019-02-20T03:19:53.708Z,21.90
2019-02-20T03:22:43.293Z,19.73
2019-02-20T03:25:33.510Z,15.60
2019-02-20T03:28:23.135Z,13.50
2019-02-20T03:31:15.404Z,15.00
2019-02-20T03:34:08.807Z,14.83
2019-02-20T03:36:55.484Z,15.27
2019-02-20T03:39:45.003Z,12.57
2019-02-20T03:42:34.219Z,13.83
2019-02-20T03:45:23.915Z,13.03
2019-02-20T03:48:13.529Z,13.10
2019-02-20T03:51:02.948Z,15.57
2019-02-20T03:53:52.643Z,12.50
2019-02-20T03:56:42.049Z,13.03
2019-02-20T03:59:31.681Z,10.87
2019-02-20T04:02:20.927Z,12.07
2019-02-20T04:05:10.965Z,11.50
2019-02-20T04:08:00.622Z,10.43
2019-02-20T04:10:50.722Z,11.27
2019-02-20T04:13:39.923Z,12.10
2019-02-20T04:16:29.132Z,11.23
2019-02-20T04:19:18.675Z,11.10
2019-02-20T04:22:07.869Z,13.13
2019-02-20T04:24:57.544Z,13.73
2019-02-20T04:27:47.187Z,13.40
2019-02-20T04:30:37.211Z,12.90
2019-02-20T04:33:26.611Z,14.00
2019-02-20T04:36:16.206Z,13.70
2019-02-20T04:39:08.795Z,12.00
2019-02-20T04:41:58.742Z,12.10
2019-02-20T04:44:47.979Z,9.80
2019-02-20T04:47:37.597Z,10.10
2019-02-20T04:50:27.108Z,10.27
2019-02-20T04:53:16.878Z,11.50
2019-02-20T04:56:06.042Z,11.77
2019-02-20T04:58:59.070Z,12.87
2019-02-20T05:01:48.611Z,11.63
2019-02-20T05:04:38.574Z,11.13
2019-02-20T05:07:28.009Z,12.10
2019-02-20T05:10:18.050Z,10.73
2019-02-20T05:13:07.534Z,9.90
2019-02-20T05:15:57.792Z,9.37
2019-02-20T05:18:47.369Z,9.77
2019-02-20T05:21:36.803Z,9.60
2019-02-20T05:24:26.295Z,9.93
2019-02-20T05:27:16.276Z,12.40
2019-02-20T05:30:05.817Z,17.30
2019-02-20T05:32:55.491Z,12.07
2019-02-20T05:35:45.430Z,9.40
2019-02-20T05:38:36.038Z,9.90
2019-02-20T05:41:25.231Z,9.30
2019-02-20T05:44:14.466Z,9.30
2019-02-20T05:47:03.963Z,9.57
2019-02-20T05:49:53.665Z,9.70
2019-02-20T05:52:43.102Z,9.57
2019-02-20T05:55:32.778Z,8.90
2019-02-20T05:58:49.812Z,9.80
2019-02-20T06:01:39.538Z,11.67
2019-02-20T06:04:29.048Z,10.00
2019-02-20T06:07:18.696Z,10.40
2019-02-20T06:10:08.764Z,11.73
2019-02-20T06:12:58.184Z,8.10
2019-02-20T06:15:47.409Z,10.60
2019-02-20T06:18:36.608Z,9.70
2019-02-20T06:21:25.741Z,9.30
2019-02-20T06:24:15.213Z,8.50
2019-02-20T06:27:04.714Z,9.47
2019-02-20T06:29:54.844Z,8.20
2019-02-20T06:32:44.334Z,9.30
2019-02-20T06:35:34.192Z,14.27
2019-02-20T06:38:23.349Z,13.17
2019-02-20T06:41:13.030Z,13.03
2019-02-20T06:44:02.222Z,12.27
2019-02-20T06:46:51.958Z,13.73
2019-02-20T06:49:41.593Z,15.10
2019-02-20T06:52:31.498Z,14.87
2019-02-20T06:55:20.704Z,13.10
2019-02-20T06:58:10.606Z,12.07
2019-02-20T07:01:00.083Z,10.30
2019-02-20T07:03:49.710Z,9.87
2019-02-20T07:07:02.698Z,11.40
2019-02-20T07:10:26.098Z,10.00
2019-02-20T07:13:47.170Z,10.47
2019-02-20T07:17:02.282Z,11.57
2019-02-20T07:20:17.653Z,13.40
2019-02-20T07:23:39.538Z,11.30
2019-02-20T07:26:58.627Z,11.67
2019-02-20T07:30:06.841Z,13.03
2019-02-20T07:32:56.512Z,29.00
2019-02-20T07:35:45.832Z,23.80
2019-02-20T07:38:35.501Z,19.73
2019-02-20T07:41:24.667Z,17.60
2019-02-20T07:44:14.552Z,15.13
2019-02-20T07:47:03.966Z,13.30
2019-02-20T07:49:53.604Z,15.07
2019-02-20T07:52:43.991Z,14.37
2019-02-20T07:55:33.525Z,13.50
2019-02-20T07:58:23.522Z,13.97
2019-02-20T08:01:12.733Z,12.87
2019-02-20T08:04:02.012Z,13.60
2019-02-20T08:06:51.284Z,13.40
2019-02-20T08:09:41.422Z,12.83
2019-02-20T08:12:30.915Z,12.87
2019-02-20T08:15:20.228Z,13.03
2019-02-20T08:18:09.853Z,13.37
2019-02-20T08:20:59.113Z,12.70
2019-02-20T08:23:49.277Z,16.50
2019-02-20T08:26:38.555Z,14.07
2019-02-20T08:29:27.909Z,14.30
2019-02-20T08:32:17.412Z,17.07
2019-02-20T08:35:07.730Z,15.80
2019-02-20T08:37:57.107Z,16.03
2019-02-20T08:40:46.920Z,15.63
2019-02-20T08:43:36.223Z,17.67
2019-02-20T08:46:26.195Z,16.10
2019-02-20T08:49:15.878Z,16.80
2019-02-20T08:52:06.334Z,14.27
2019-02-20T08:54:56.045Z,15.53
2019-02-20T08:57:45.507Z,14.47
2019-02-20T09:00:35.569Z,19.40
2019-02-20T09:03:24.778Z,17.53
2019-02-20T09:06:14.144Z,18.77
2019-02-20T09:09:06.987Z,18.67
2019-02-20T09:11:56.181Z,18.60
2019-02-20T09:14:45.458Z,21.07
2019-02-20T09:17:34.779Z,17.20
2019-02-20T09:20:24.169Z,17.43
2019-02-20T09:23:13.571Z,18.07
2019-02-20T09:26:03.555Z,16.47
2019-02-20T09:28:53.028Z,15.30
2019-02-20T09:31:42.625Z,14.67
2019-02-20T09:34:32.469Z,14.70
2019-02-20T09:37:21.682Z,16.87
2019-02-20T09:40:14.204Z,15.70
2019-02-20T09:43:03.683Z,15.13
2019-02-20T09:45:52.939Z,15.70
2019-02-20T09:48:42.221Z,13.07
2019-02-20T09:51:31.706Z,14.77
2019-02-20T09:54:21.214Z,13.03
2019-02-20T09:57:10.640Z,12.93
2019-02-20T09:59:59.771Z,12.60
2019-02-20T10:02:49.332Z,13.67
2019-02-20T10:05:38.548Z,13.03
2019-02-20T10:08:28.069Z,13.57
2019-02-20T10:11:17.551Z,11.00
2019-02-20T10:14:10.039Z,11.87
2019-02-20T10:17:00.219Z,10.83
2019-02-20T10:19:49.858Z,11.70
2019-02-20T10:22:39.055Z,10.20
2019-02-20T10:25:28.828Z,10.53
2019-02-20T10:28:18.408Z,10.50
2019-02-20T10:31:08.031Z,10.87
2019-02-20T10:33:57.311Z,9.80
2019-02-20T10:36:46.940Z,10.73
2019-02-20T10:39:36.414Z,10.97
2019-02-20T10:42:26.032Z,11.77
2019-02-20T10:45:15.435Z,12.00
2019-02-20T10:48:05.048Z,10.80
2019-02-20T10:50:54.781Z,10.80
2019-02-20T10:53:44.107Z,11.00
2019-02-20T10:56:37.179Z,11.50
2019-02-20T10:59:26.770Z,10.77
2019-02-20T11:02:16.826Z,11.30
2019-02-20T11:05:06.826Z,12.00
2019-02-20T11:07:56.702Z,12.20
2019-02-20T11:10:45.654Z,11.57
2019-02-20T11:13:35.002Z,12.40
2019-02-20T11:16:25.167Z,11.80
2019-02-20T11:19:15.683Z,11.50
2019-02-20T11:22:05.347Z,12.07
2019-02-20T11:24:55.265Z,12.60
2019-02-20T11:27:44.486Z,11.80
2019-02-20T11:30:33.672Z,10.80
2019-02-20T11:33:22.928Z,12.17
2019-02-20T11:36:12.860Z,11.53
2019-02-20T11:39:02.232Z,17.50
2019-02-20T11:41:52.021Z,11.57
2019-02-20T11:44:49.839Z,13.23
2019-02-20T11:47:46.816Z,10.80
2019-02-20T11:50:43.785Z,11.17
2019-02-20T11:53:37.193Z,11.23
2019-02-20T11:56:26.808Z,11.50
2019-02-20T11:59:16.856Z,13.73
2019-02-20T12:02:06.400Z,10.57
2019-02-20T12:04:56.225Z,12.10
2019-02-20T12:07:45.943Z,12.30
2019-02-20T12:10:36.630Z,12.30
2019-02-20T12:13:26.503Z,17.43
2019-02-20T12:16:16.264Z,12.40
2019-02-20T12:19:08.078Z,12.20
2019-02-20T12:21:58.235Z,12.37
2019-02-20T12:24:47.609Z,11.20
2019-02-20T12:27:36.829Z,10.47
2019-02-20T12:30:26.739Z,10.80
2019-02-20T12:33:16.225Z,12.03
2019-02-20T12:36:06.257Z,9.80
2019-02-20T12:38:55.883Z,10.00
2019-02-20T12:41:47.318Z,9.20
2019-02-20T12:44:36.719Z,10.67
2019-02-20T12:50:51.521Z,12.10
2019-02-20T12:53:40.984Z,10.90
2019-02-20T12:56:30.513Z,10.87
2019-02-20T12:59:19.427Z,10.43
2019-02-20T13:02:09.407Z,9.90
2019-02-20T13:04:58.772Z,9.60
2019-02-20T13:07:48.125Z,10.07
2019-02-20T13:10:37.587Z,9.37
2019-02-20T13:13:27.042Z,9.80
2019-02-20T13:16:16.811Z,12.00
2019-02-20T13:19:14.659Z,11.20
2019-02-20T13:22:04.329Z,10.03
2019-02-20T13:24:53.515Z,10.40
2019-02-20T13:27:42.764Z,10.10
2019-02-20T13:30:32.780Z,11.10
2019-02-20T13:33:22.230Z,10.13
2019-02-20T13:36:12.218Z,12.03
2019-02-20T13:39:01.488Z,11.40
2019-02-20T13:41:50.765Z,12.53
2019-02-20T13:44:40.445Z,11.93
2019-02-20T13:47:30.018Z,11.37
2019-02-20T13:50:19.277Z,12.33
2019-02-20T13:53:09.024Z,11.37
2019-02-20T13:55:59.645Z,10.77
2019-02-20T13:58:49.558Z,11.23
2019-02-20T14:01:38.659Z,9.00
2019-02-20T14:04:28.549Z,10.20
2019-02-20T14:07:17.771Z,11.43
2019-02-20T14:10:10.897Z,10.47
2019-02-20T14:13:00.338Z,10.17
2019-02-20T14:15:49.971Z,9.33
2019-02-20T14:18:39.281Z,9.40
2019-02-20T14:21:29.322Z,8.10
2019-02-20T14:24:18.826Z,6.57
2019-02-20T14:27:10.886Z,8.20
2019-02-20T14:29:59.222Z,8.20
2019-02-20T14:32:48.854Z,11.10
2019-02-20T14:35:38.507Z,8.80
2019-02-20T14:38:27.992Z,8.80
2019-02-20T14:41:17.562Z,9.10
2019-02-20T14:44:08.707Z,9.10
2019-02-20T14:46:57.939Z,8.80
2019-02-20T14:49:47.374Z,9.60
2019-02-20T14:52:36.813Z,8.40
2019-02-20T14:55:26.013Z,11.50
2019-02-20T14:58:15.555Z,11.40
2019-02-20T15:01:06.211Z,12.43
2019-02-20T15:03:56.316Z,9.60
2019-02-20T15:06:46.374Z,9.80
2019-02-20T15:09:35.745Z,9.93
2019-02-20T15:12:25.419Z,9.07
2019-02-20T15:15:14.812Z,8.20
2019-02-20T15:18:04.570Z,9.50
2019-02-20T15:20:54.455Z,10.20
2019-02-20T15:23:43.791Z,9.83
2019-02-20T15:26:33.258Z,9.67
2019-02-20T15:29:22.667Z,10.87
2019-02-20T15:32:11.890Z,8.70
2019-02-20T15:35:01.764Z,12.90
2019-02-20T15:37:51.623Z,10.80
2019-02-20T15:40:41.141Z,9.97
2019-02-20T15:43:31.252Z,9.63
2019-02-20T15:46:20.647Z,11.30
2019-02-20T15:49:10.516Z,10.00
2019-02-20T15:52:00.401Z,10.80
2019-02-20T15:54:49.632Z,10.83
2019-02-20T15:57:39.267Z,10.43
2019-02-20T16:00:29.036Z,11.30
2019-02-20T16:03:18.495Z,11.23
2019-02-20T16:06:07.791Z,11.80
2019-02-20T16:08:57.185Z,10.00
2019-02-20T16:11:46.362Z,8.60
2019-02-20T16:14:36.367Z,11.77
2019-02-20T16:17:25.948Z,10.40
2019-02-20T16:20:15.405Z,9.63
2019-02-20T16:23:04.961Z,9.33
2019-02-20T16:25:54.417Z,10.30
2019-02-20T16:28:44.700Z,9.70
2019-02-20T16:31:35.559Z,9.40
2019-02-20T16:34:25.447Z,11.50
2019-02-20T16:37:14.933Z,11.57
2019-02-20T16:40:04.641Z,10.60
2019-02-20T16:42:56.609Z,11.47
2019-02-20T16:45:46.724Z,10.03
2019-02-20T16:48:37.485Z,10.27
2019-02-20T16:51:27.118Z,7.63
2019-02-20T16:54:16.520Z,8.10
2019-02-20T16:57:06.063Z,7.87
2019-02-20T16:59:55.550Z,16.17
2019-02-20T17:02:49.155Z,56.87
2019-02-20T17:05:39.951Z,39.83
2019-02-20T17:08:29.758Z,16.07
2019-02-20T17:11:19.418Z,8.97
2019-02-20T17:14:11.550Z,10.70
2019-02-20T17:17:01.408Z,11.13
2019-02-20T17:19:51.401Z,9.30
2019-02-20T17:22:40.557Z,7.90
2019-02-20T17:25:29.823Z,7.40
2019-02-20T17:28:19.255Z,6.97
2019-02-20T17:31:08.917Z,6.43
2019-02-20T17:33:58.577Z,7.10
2019-02-20T17:36:48.726Z,24.00
2019-02-20T17:39:38.080Z,14.10
2019-02-20T17:42:28.020Z,11.90
2019-02-20T17:45:17.446Z,8.93
2019-02-20T17:48:07.806Z,7.57
2019-02-20T17:50:57.018Z,6.27
2019-02-20T17:53:46.622Z,6.40
2019-02-20T17:56:36.213Z,7.50
2019-02-20T17:59:26.412Z,7.30
2019-02-20T18:02:15.958Z,6.60
2019-02-20T18:05:06.266Z,6.20
2019-02-20T18:07:55.722Z,8.30
2019-02-20T18:10:45.751Z,8.03
2019-02-20T18:13:35.277Z,7.93
2019-02-20T18:16:25.207Z,6.83
2019-02-20T18:19:16.650Z,6.60
2019-02-20T18:22:08.436Z,8.50
2019-02-20T18:24:59.065Z,6.60
2019-02-20T18:27:49.753Z,7.30
2019-02-20T18:30:40.531Z,6.47
2019-02-20T18:33:30.530Z,6.77
2019-02-20T18:36:21.252Z,7.47
2019-02-20T18:39:11.324Z,7.17
2019-02-20T18:42:01.907Z,7.33
2019-02-20T18:44:52.500Z,9.70
2019-02-20T18:48:05.667Z,8.37
2019-02-20T18:50:55.860Z,9.43
2019-02-20T18:54:39.779Z,9.10
2019-02-20T18:57:30.026Z,7.10
2019-02-20T19:00:20.472Z,8.50
2019-02-20T19:03:13.505Z,5.57
2019-02-20T19:06:03.962Z,6.60
2019-02-20T19:09:14.138Z,5.70
2019-02-20T19:12:40.866Z,5.83
2019-02-20T19:16:21.243Z,10.80
2019-02-20T19:19:40.623Z,10.77
2019-02-20T19:23:04.096Z,9.20
2019-02-20T19:26:34.746Z,9.27
2019-02-20T19:30:01.034Z,5.40
2019-02-20T19:33:18.130Z,5.90
2019-02-20T19:36:23.939Z,6.43
2019-02-20T19:39:55.429Z,12.10
2019-02-20T19:43:10.145Z,16.10
2019-02-20T19:46:52.953Z,16.40
2019-02-20T19:50:20.267Z,15.00
2019-02-20T19:53:34.460Z,16.07
2019-02-20T19:57:06.941Z,14.77
2019-02-20T20:00:23.651Z,16.33
2019-02-20T20:03:55.893Z,12.67
2019-02-20T20:07:38.307Z,13.27
2019-02-20T20:10:58.883Z,15.00
2019-02-20T20:14:41.354Z,16.07
2019-02-20T20:18:12.990Z,15.63
2019-02-20T20:21:37.779Z,15.67
2019-02-20T20:25:16.357Z,15.53
2019-02-20T20:28:48.499Z,14.23
2019-02-20T20:32:14.250Z,15.10
2019-02-20T20:35:43.186Z,14.80
2019-02-20T20:39:07.018Z,18.90
2019-02-20T20:42:28.270Z,15.10
2019-02-20T20:45:27.736Z,16.13
2019-02-20T20:48:50.560Z,15.10
2019-02-20T20:52:12.692Z,11.63
2019-02-20T20:55:38.098Z,10.73
2019-02-20T20:59:01.310Z,8.00
2019-02-20T21:02:28.090Z,7.57
2019-02-20T21:05:54.215Z,7.40
2019-02-20T21:09:26.182Z,7.40
2019-02-20T21:12:59.864Z,8.50
2019-02-20T21:16:35.958Z,8.60
2019-02-20T21:19:46.059Z,10.47
2019-02-20T21:23:22.715Z,9.33
2019-02-20T21:26:44.062Z,9.33
2019-02-20T21:30:15.316Z,9.20
2019-02-20T21:34:09.108Z,9.20
2019-02-20T21:37:44.467Z,16.53
2019-02-20T21:41:00.096Z,13.70
2019-02-20T21:44:12.158Z,16.47
2019-02-20T21:47:34.960Z,13.43
2019-02-20T21:50:47.572Z,9.77
2019-02-20T21:54:10.156Z,8.10
2019-02-20T21:57:23.467Z,9.70
2019-02-20T22:01:09.594Z,7.77
2019-02-20T22:04:18.232Z,8.30
2019-02-20T22:07:44.903Z,7.80
2019-02-20T22:11:24.300Z,7.60
2019-02-20T22:14:56.264Z,9.70
2019-02-20T22:18:44.248Z,9.17
2019-02-20T22:22:08.153Z,8.93
2019-02-20T22:25:41.099Z,7.03
2019-02-20T22:28:57.102Z,7.97
2019-02-20T22:32:28.987Z,9.07
2019-02-20T22:35:58.298Z,11.60
2019-02-20T22:39:18.078Z,10.57
2019-02-20T22:42:51.913Z,18.47
2019-02-20T22:46:05.540Z,23.40
2019-02-20T22:49:44.909Z,14.50
2019-02-20T22:52:53.719Z,16.83
2019-02-20T22:56:16.037Z,12.97
2019-02-20T22:59:30.830Z,10.70
2019-02-20T23:03:00.326Z,9.10
2019-02-20T23:06:19.632Z,11.27
2019-02-20T23:09:42.719Z,12.13
2019-02-20T23:13:43.255Z,11.20
2019-02-20T23:16:32.647Z,11.10
2019-02-20T23:19:22.051Z,10.37
2019-02-20T23:22:11.484Z,9.00
2019-02-20T23:25:01.102Z,10.00
2019-02-20T23:27:50.508Z,13.03
2019-02-20T23:30:40.339Z,11.53
2019-02-20T23:33:30.102Z,12.00
2019-02-20T23:36:19.706Z,13.27
2019-02-20T23:39:11.412Z,11.37
2019-02-20T23:42:01.331Z,10.20
2019-02-20T23:44:51.083Z,11.00
2019-02-20T23:47:40.956Z,12.33
2019-02-20T23:50:30.294Z,13.40
2019-02-20T23:53:20.115Z,11.00
2019-02-20T23:56:10.164Z,12.27
2019-02-20T23:58:59.633Z,10.93
